sensor_id;sensor_type;location;lat;lon;timestamp;P1;durP1;ratioP1;P2;durP2;ratioP2
67274;SDS011;55463;52.324;5.122;2023-02-26T00:00:58;2.88;;;1.48;;
67274;SDS011;55463;52.324;5.122;2023-02-26T00:03:23;1.73;;;0.82;;
67274;SDS011;55463;52.324;5.122;2023-02-26T00:05:48;3.45;;;1.70;;
67274;SDS011;55463;52.324;5.122;2023-02-26T00:08:14;6.10;;;1.10;;
67274;SDS011;55463;52.324;5.122;2023-02-26T00:10:40;1.13;;;0.82;;
67274;SDS011;55463;52.324;5.122;2023-02-26T00:13:05;3.95;;;1.23;;
67274;SDS011;55463;52.324;5.122;2023-02-26T00:15:31;4.10;;;1.52;;
67274;SDS011;55463;52.324;5.122;2023-02-26T00:20:22;5.07;;;1.35;;
67274;SDS011;55463;52.324;5.122;2023-02-26T00:22:48;2.47;;;1.42;;
67274;SDS011;55463;52.324;5.122;2023-02-26T00:25:14;5.57;;;2.00;;
67274;SDS011;55463;52.324;5.122;2023-02-26T00:27:39;8.40;;;1.73;;
67274;SDS011;55463;52.324;5.122;2023-02-26T00:30:06;4.28;;;1.92;;
67274;SDS011;55463;52.324;5.122;2023-02-26T00:32:33;4.53;;;1.35;;
67274;SDS011;55463;52.324;5.122;2023-02-26T00:34:59;7.00;;;1.25;;
67274;SDS011;55463;52.324;5.122;2023-02-26T00:40:11;5.07;;;1.48;;
67274;SDS011;55463;52.324;5.122;2023-02-26T00:42:41;4.82;;;1.58;;
67274;SDS011;55463;52.324;5.122;2023-02-26T00:45:07;3.55;;;1.00;;
67274;SDS011;55463;52.324;5.122;2023-02-26T00:55:20;3.20;;;1.55;;
67274;SDS011;55463;52.324;5.122;2023-02-26T00:57:45;8.30;;;1.77;;
67274;SDS011;55463;52.324;5.122;2023-02-26T01:00:11;6.65;;;1.55;;
67274;SDS011;55463;52.324;5.122;2023-02-26T01:02:38;2.25;;;1.13;;
67274;SDS011;55463;52.324;5.122;2023-02-26T01:05:04;4.40;;;1.55;;
67274;SDS011;55463;52.324;5.122;2023-02-26T01:07:32;2.97;;;1.08;;
67274;SDS011;55463;52.324;5.122;2023-02-26T01:10:05;5.25;;;1.30;;
67274;SDS011;55463;52.324;5.122;2023-02-26T01:12:31;6.32;;;1.88;;
67274;SDS011;55463;52.324;5.122;2023-02-26T01:14:57;7.82;;;1.40;;
67274;SDS011;55463;52.324;5.122;2023-02-26T01:20:05;5.78;;;1.02;;
67274;SDS011;55463;52.324;5.122;2023-02-26T01:22:45;1.73;;;1.10;;
67274;SDS011;55463;52.324;5.122;2023-02-26T01:25:17;3.92;;;1.23;;
67274;SDS011;55463;52.324;5.122;2023-02-26T01:27:49;5.40;;;1.40;;
67274;SDS011;55463;52.324;5.122;2023-02-26T01:30:14;5.57;;;1.08;;
67274;SDS011;55463;52.324;5.122;2023-02-26T01:49:45;3.40;;;1.10;;
67274;SDS011;55463;52.324;5.122;2023-02-26T01:55:14;5.40;;;0.90;;
67274;SDS011;55463;52.324;5.122;2023-02-26T01:57:42;6.03;;;1.20;;
67274;SDS011;55463;52.324;5.122;2023-02-26T02:00:08;5.00;;;1.15;;
67274;SDS011;55463;52.324;5.122;2023-02-26T02:02:34;4.40;;;1.27;;
67274;SDS011;55463;52.324;5.122;2023-02-26T02:05:03;1.80;;;0.80;;
67274;SDS011;55463;52.324;5.122;2023-02-26T02:07:36;7.88;;;1.50;;
67274;SDS011;55463;52.324;5.122;2023-02-26T02:10:01;1.65;;;1.08;;
67274;SDS011;55463;52.324;5.122;2023-02-26T02:12:37;2.03;;;0.98;;
67274;SDS011;55463;52.324;5.122;2023-02-26T02:15:14;4.43;;;1.05;;
67274;SDS011;55463;52.324;5.122;2023-02-26T02:18:00;1.98;;;1.25;;
67274;SDS011;55463;52.324;5.122;2023-02-26T02:23:25;7.50;;;1.10;;
67274;SDS011;55463;52.324;5.122;2023-02-26T02:31:57;5.43;;;1.50;;
67274;SDS011;55463;52.324;5.122;2023-02-26T02:34:38;8.68;;;1.52;;
67274;SDS011;55463;52.324;5.122;2023-02-26T02:42:26;2.90;;;1.38;;
67274;SDS011;55463;52.324;5.122;2023-02-26T02:45:07;5.88;;;1.20;;
67274;SDS011;55463;52.324;5.122;2023-02-26T02:47:38;1.17;;;0.95;;
67274;SDS011;55463;52.324;5.122;2023-02-26T02:50:12;7.22;;;1.63;;
67274;SDS011;55463;52.324;5.122;2023-02-26T02:55:19;5.05;;;1.00;;
67274;SDS011;55463;52.324;5.122;2023-02-26T02:57:50;2.35;;;0.93;;
67274;SDS011;55463;52.324;5.122;2023-02-26T03:00:20;3.50;;;0.98;;
67274;SDS011;55463;52.324;5.122;2023-02-26T03:05:35;4.38;;;1.05;;
67274;SDS011;55463;52.324;5.122;2023-02-26T03:08:02;1.08;;;1.02;;
67274;SDS011;55463;52.324;5.122;2023-02-26T03:10:33;4.10;;;1.13;;
67274;SDS011;55463;52.324;5.122;2023-02-26T03:12:59;5.82;;;1.08;;
67274;SDS011;55463;52.324;5.122;2023-02-26T03:15:38;0.95;;;0.70;;
67274;SDS011;55463;52.324;5.122;2023-02-26T03:18:22;2.72;;;1.45;;
67274;SDS011;55463;52.324;5.122;2023-02-26T03:21:07;2.25;;;1.30;;
67274;SDS011;55463;52.324;5.122;2023-02-26T03:23:47;2.55;;;0.98;;
67274;SDS011;55463;52.324;5.122;2023-02-26T03:26:20;4.82;;;1.13;;
67274;SDS011;55463;52.324;5.122;2023-02-26T03:28:56;1.23;;;1.10;;
67274;SDS011;55463;52.324;5.122;2023-02-26T03:31:54;3.22;;;1.15;;
67274;SDS011;55463;52.324;5.122;2023-02-26T03:34:29;1.55;;;0.85;;
67274;SDS011;55463;52.324;5.122;2023-02-26T03:37:11;8.32;;;1.48;;
67274;SDS011;55463;52.324;5.122;2023-02-26T03:39:45;1.98;;;0.85;;
67274;SDS011;55463;52.324;5.122;2023-02-26T03:42:15;4.22;;;1.20;;
67274;SDS011;55463;52.324;5.122;2023-02-26T03:45:00;0.95;;;0.70;;
67274;SDS011;55463;52.324;5.122;2023-02-26T03:47:29;2.20;;;1.15;;
67274;SDS011;55463;52.324;5.122;2023-02-26T03:50:10;1.10;;;0.68;;
67274;SDS011;55463;52.324;5.122;2023-02-26T03:52:40;2.30;;;0.73;;
67274;SDS011;55463;52.324;5.122;2023-02-26T03:55:14;2.38;;;1.45;;
67274;SDS011;55463;52.324;5.122;2023-02-26T03:57:43;0.80;;;0.80;;
67274;SDS011;55463;52.324;5.122;2023-02-26T04:00:09;1.00;;;0.90;;
67274;SDS011;55463;52.324;5.122;2023-02-26T04:05:16;7.70;;;1.33;;
67274;SDS011;55463;52.324;5.122;2023-02-26T04:07:44;1.45;;;0.90;;
67274;SDS011;55463;52.324;5.122;2023-02-26T04:10:13;5.82;;;1.10;;
67274;SDS011;55463;52.324;5.122;2023-02-26T04:15:08;1.52;;;0.88;;
67274;SDS011;55463;52.324;5.122;2023-02-26T04:17:33;2.00;;;0.68;;
67274;SDS011;55463;52.324;5.122;2023-02-26T04:19:59;3.17;;;0.93;;
67274;SDS011;55463;52.324;5.122;2023-02-26T04:22:24;2.47;;;1.00;;
67274;SDS011;55463;52.324;5.122;2023-02-26T04:24:50;4.82;;;0.80;;
67274;SDS011;55463;52.324;5.122;2023-02-26T04:27:15;4.10;;;1.15;;
67274;SDS011;55463;52.324;5.122;2023-02-26T04:29:40;3.30;;;0.60;;
67274;SDS011;55463;52.324;5.122;2023-02-26T04:32:06;1.80;;;0.90;;
67274;SDS011;55463;52.324;5.122;2023-02-26T04:34:31;0.60;;;0.60;;
67274;SDS011;55463;52.324;5.122;2023-02-26T04:36:57;1.17;;;0.80;;
67274;SDS011;55463;52.324;5.122;2023-02-26T04:39:22;3.30;;;0.85;;
67274;SDS011;55463;52.324;5.122;2023-02-26T04:41:47;2.22;;;0.70;;
67274;SDS011;55463;52.324;5.122;2023-02-26T04:44:13;5.03;;;1.10;;
67274;SDS011;55463;52.324;5.122;2023-02-26T04:46:38;8.00;;;1.20;;
67274;SDS011;55463;52.324;5.122;2023-02-26T04:49:03;4.43;;;1.25;;
67274;SDS011;55463;52.324;5.122;2023-02-26T04:51:29;5.93;;;1.35;;
67274;SDS011;55463;52.324;5.122;2023-02-26T04:53:54;4.60;;;1.20;;
67274;SDS011;55463;52.324;5.122;2023-02-26T04:56:20;11.38;;;1.20;;
67274;SDS011;55463;52.324;5.122;2023-02-26T04:58:46;1.90;;;1.13;;
67274;SDS011;55463;52.324;5.122;2023-02-26T05:01:11;3.35;;;1.13;;
67274;SDS011;55463;52.324;5.122;2023-02-26T05:03:37;1.30;;;0.98;;
67274;SDS011;55463;52.324;5.122;2023-02-26T05:06:03;1.30;;;1.02;;
67274;SDS011;55463;52.324;5.122;2023-02-26T05:08:28;4.15;;;0.93;;
67274;SDS011;55463;52.324;5.122;2023-02-26T05:10:54;4.93;;;1.10;;
67274;SDS011;55463;52.324;5.122;2023-02-26T05:13:19;1.55;;;0.73;;
67274;SDS011;55463;52.324;5.122;2023-02-26T05:15:45;2.72;;;0.90;;
67274;SDS011;55463;52.324;5.122;2023-02-26T05:18:10;4.80;;;1.17;;
67274;SDS011;55463;52.324;5.122;2023-02-26T05:20:36;1.90;;;0.98;;
67274;SDS011;55463;52.324;5.122;2023-02-26T05:23:02;7.05;;;1.60;;
67274;SDS011;55463;52.324;5.122;2023-02-26T05:25:27;6.47;;;1.30;;
67274;SDS011;55463;52.324;5.122;2023-02-26T05:27:53;4.78;;;1.02;;
67274;SDS011;55463;52.324;5.122;2023-02-26T05:30:18;3.60;;;1.42;;
67274;SDS011;55463;52.324;5.122;2023-02-26T05:32:44;2.38;;;1.30;;
67274;SDS011;55463;52.324;5.122;2023-02-26T05:35:09;4.00;;;0.77;;
67274;SDS011;55463;52.324;5.122;2023-02-26T05:37:36;4.03;;;1.20;;
67274;SDS011;55463;52.324;5.122;2023-02-26T05:40:05;1.73;;;0.90;;
67274;SDS011;55463;52.324;5.122;2023-02-26T05:42:34;1.13;;;0.77;;
67274;SDS011;55463;52.324;5.122;2023-02-26T05:45:00;2.67;;;1.05;;
67274;SDS011;55463;52.324;5.122;2023-02-26T05:47:25;0.88;;;0.88;;
67274;SDS011;55463;52.324;5.122;2023-02-26T05:49:50;2.95;;;1.02;;
67274;SDS011;55463;52.324;5.122;2023-02-26T05:52:16;4.20;;;1.00;;
67274;SDS011;55463;52.324;5.122;2023-02-26T05:54:41;4.07;;;1.55;;
67274;SDS011;55463;52.324;5.122;2023-02-26T05:57:07;1.90;;;0.98;;
67274;SDS011;55463;52.324;5.122;2023-02-26T05:59:32;0.80;;;0.80;;
67274;SDS011;55463;52.324;5.122;2023-02-26T06:01:57;6.95;;;1.40;;
67274;SDS011;55463;52.324;5.122;2023-02-26T06:04:23;2.72;;;1.10;;
67274;SDS011;55463;52.324;5.122;2023-02-26T06:06:48;2.50;;;1.02;;
67274;SDS011;55463;52.324;5.122;2023-02-26T06:09:14;3.05;;;1.38;;
67274;SDS011;55463;52.324;5.122;2023-02-26T06:11:39;5.25;;;1.08;;
67274;SDS011;55463;52.324;5.122;2023-02-26T06:14:04;2.33;;;0.93;;
67274;SDS011;55463;52.324;5.122;2023-02-26T06:16:30;1.77;;;1.20;;
67274;SDS011;55463;52.324;5.122;2023-02-26T06:18:56;6.00;;;1.20;;
67274;SDS011;55463;52.324;5.122;2023-02-26T06:21:22;1.98;;;0.68;;
67274;SDS011;55463;52.324;5.122;2023-02-26T06:23:47;2.28;;;1.00;;
67274;SDS011;55463;52.324;5.122;2023-02-26T06:26:13;1.48;;;1.08;;
67274;SDS011;55463;52.324;5.122;2023-02-26T06:28:38;1.17;;;0.70;;
67274;SDS011;55463;52.324;5.122;2023-02-26T06:31:03;0.80;;;0.80;;
67274;SDS011;55463;52.324;5.122;2023-02-26T06:33:29;5.93;;;1.40;;
67274;SDS011;55463;52.324;5.122;2023-02-26T06:35:54;2.55;;;1.10;;
67274;SDS011;55463;52.324;5.122;2023-02-26T06:38:22;4.68;;;1.13;;
67274;SDS011;55463;52.324;5.122;2023-02-26T06:40:47;5.45;;;1.50;;
67274;SDS011;55463;52.324;5.122;2023-02-26T06:43:13;2.10;;;0.95;;
67274;SDS011;55463;52.324;5.122;2023-02-26T06:45:38;2.10;;;1.00;;
67274;SDS011;55463;52.324;5.122;2023-02-26T06:48:04;1.52;;;1.35;;
67274;SDS011;55463;52.324;5.122;2023-02-26T06:50:29;5.22;;;1.27;;
67274;SDS011;55463;52.324;5.122;2023-02-26T06:52:55;6.78;;;1.15;;
67274;SDS011;55463;52.324;5.122;2023-02-26T06:55:21;4.82;;;1.73;;
67274;SDS011;55463;52.324;5.122;2023-02-26T06:57:50;7.45;;;1.23;;
67274;SDS011;55463;52.324;5.122;2023-02-26T07:00:17;4.85;;;1.10;;
67274;SDS011;55463;52.324;5.122;2023-02-26T07:02:42;2.28;;;1.08;;
67274;SDS011;55463;52.324;5.122;2023-02-26T07:05:08;1.02;;;0.90;;
67274;SDS011;55463;52.324;5.122;2023-02-26T07:07:33;5.15;;;1.20;;
67274;SDS011;55463;52.324;5.122;2023-02-26T07:09:59;4.38;;;0.88;;
67274;SDS011;55463;52.324;5.122;2023-02-26T07:12:24;4.60;;;1.38;;
67274;SDS011;55463;52.324;5.122;2023-02-26T07:14:50;6.07;;;1.10;;
67274;SDS011;55463;52.324;5.122;2023-02-26T07:17:15;2.08;;;0.98;;
67274;SDS011;55463;52.324;5.122;2023-02-26T07:19:50;1.25;;;0.93;;
67274;SDS011;55463;52.324;5.122;2023-02-26T07:22:16;2.90;;;1.27;;
67274;SDS011;55463;52.324;5.122;2023-02-26T07:24:43;4.22;;;1.55;;
67274;SDS011;55463;52.324;5.122;2023-02-26T07:27:08;3.15;;;1.20;;
67274;SDS011;55463;52.324;5.122;2023-02-26T07:29:34;2.42;;;0.90;;
67274;SDS011;55463;52.324;5.122;2023-02-26T07:32:00;4.45;;;0.98;;
67274;SDS011;55463;52.324;5.122;2023-02-26T07:34:26;4.25;;;1.40;;
67274;SDS011;55463;52.324;5.122;2023-02-26T07:36:51;2.90;;;0.80;;
67274;SDS011;55463;52.324;5.122;2023-02-26T07:39:16;3.13;;;1.08;;
67274;SDS011;55463;52.324;5.122;2023-02-26T07:41:42;2.30;;;0.90;;
67274;SDS011;55463;52.324;5.122;2023-02-26T07:44:07;1.33;;;0.95;;
67274;SDS011;55463;52.324;5.122;2023-02-26T07:46:33;5.13;;;1.20;;
67274;SDS011;55463;52.324;5.122;2023-02-26T07:48:58;2.17;;;0.98;;
67274;SDS011;55463;52.324;5.122;2023-02-26T07:51:23;1.58;;;0.73;;
67274;SDS011;55463;52.324;5.122;2023-02-26T07:53:49;3.70;;;1.10;;
67274;SDS011;55463;52.324;5.122;2023-02-26T07:56:14;4.07;;;1.00;;
67274;SDS011;55463;52.324;5.122;2023-02-26T07:58:39;1.73;;;1.00;;
67274;SDS011;55463;52.324;5.122;2023-02-26T08:01:05;1.98;;;1.08;;
67274;SDS011;55463;52.324;5.122;2023-02-26T08:03:31;2.05;;;0.80;;
67274;SDS011;55463;52.324;5.122;2023-02-26T08:05:57;3.80;;;0.80;;
67274;SDS011;55463;52.324;5.122;2023-02-26T08:08:24;3.33;;;1.40;;
67274;SDS011;55463;52.324;5.122;2023-02-26T08:10:50;1.77;;;0.80;;
67274;SDS011;55463;52.324;5.122;2023-02-26T08:13:15;5.32;;;1.10;;
67274;SDS011;55463;52.324;5.122;2023-02-26T08:15:41;1.70;;;0.85;;
67274;SDS011;55463;52.324;5.122;2023-02-26T08:18:08;5.82;;;1.40;;
67274;SDS011;55463;52.324;5.122;2023-02-26T08:20:33;5.57;;;1.23;;
67274;SDS011;55463;52.324;5.122;2023-02-26T08:22:59;4.93;;;1.23;;
67274;SDS011;55463;52.324;5.122;2023-02-26T08:25:24;5.00;;;0.70;;
67274;SDS011;55463;52.324;5.122;2023-02-26T08:27:50;6.45;;;1.33;;
67274;SDS011;55463;52.324;5.122;2023-02-26T08:30:15;0.80;;;0.80;;
67274;SDS011;55463;52.324;5.122;2023-02-26T08:32:41;0.80;;;0.77;;
67274;SDS011;55463;52.324;5.122;2023-02-26T08:35:07;3.33;;;1.30;;
67274;SDS011;55463;52.324;5.122;2023-02-26T08:37:34;5.85;;;1.38;;
67274;SDS011;55463;52.324;5.122;2023-02-26T08:39:59;1.58;;;0.95;;
67274;SDS011;55463;52.324;5.122;2023-02-26T08:42:24;3.92;;;1.13;;
67274;SDS011;55463;52.324;5.122;2023-02-26T08:44:50;4.47;;;1.48;;
67274;SDS011;55463;52.324;5.122;2023-02-26T08:47:15;4.03;;;1.48;;
67274;SDS011;55463;52.324;5.122;2023-02-26T08:49:41;2.10;;;0.82;;
67274;SDS011;55463;52.324;5.122;2023-02-26T08:52:07;6.55;;;0.82;;
67274;SDS011;55463;52.324;5.122;2023-02-26T08:54:32;2.22;;;0.98;;
67274;SDS011;55463;52.324;5.122;2023-02-26T08:56:57;2.17;;;1.20;;
67274;SDS011;55463;52.324;5.122;2023-02-26T08:59:23;0.73;;;0.70;;
67274;SDS011;55463;52.324;5.122;2023-02-26T09:01:49;1.92;;;0.85;;
67274;SDS011;55463;52.324;5.122;2023-02-26T09:04:15;4.15;;;1.20;;
67274;SDS011;55463;52.324;5.122;2023-02-26T09:06:40;9.10;;;1.17;;
67274;SDS011;55463;52.324;5.122;2023-02-26T09:09:06;2.15;;;0.70;;
67274;SDS011;55463;52.324;5.122;2023-02-26T09:11:32;0.82;;;0.70;;
67274;SDS011;55463;52.324;5.122;2023-02-26T09:13:58;2.60;;;0.82;;
67274;SDS011;55463;52.324;5.122;2023-02-26T09:16:23;1.98;;;0.85;;
67274;SDS011;55463;52.324;5.122;2023-02-26T09:18:49;3.88;;;1.52;;
67274;SDS011;55463;52.324;5.122;2023-02-26T09:21:15;6.05;;;1.10;;
67274;SDS011;55463;52.324;5.122;2023-02-26T09:23:41;2.17;;;0.93;;
67274;SDS011;55463;52.324;5.122;2023-02-26T09:26:07;6.07;;;1.40;;
67274;SDS011;55463;52.324;5.122;2023-02-26T09:28:33;5.47;;;0.98;;
67274;SDS011;55463;52.324;5.122;2023-02-26T09:30:58;2.92;;;0.85;;
67274;SDS011;55463;52.324;5.122;2023-02-26T13:50:43;0.63;;;0.60;;
67274;SDS011;55463;52.324;5.122;2023-02-26T13:56:11;3.97;;;0.85;;
67274;SDS011;55463;52.324;5.122;2023-02-26T13:58:41;1.17;;;0.90;;
67274;SDS011;55463;52.324;5.122;2023-02-26T14:22:41;1.45;;;0.70;;
67274;SDS011;55463;52.324;5.122;2023-02-26T14:27:34;2.00;;;1.00;;
67274;SDS011;55463;52.324;5.122;2023-02-26T14:35:10;2.72;;;1.13;;
67274;SDS011;55463;52.324;5.122;2023-02-26T14:37:39;7.93;;;1.42;;
67274;SDS011;55463;52.324;5.122;2023-02-26T14:42:36;0.95;;;0.75;;
67274;SDS011;55463;52.324;5.122;2023-02-26T14:47:42;2.47;;;0.98;;
67274;SDS011;55463;52.324;5.122;2023-02-26T14:50:13;1.73;;;0.60;;
67274;SDS011;55463;52.324;5.122;2023-02-26T14:58:15;3.22;;;1.33;;
67274;SDS011;55463;52.324;5.122;2023-02-26T15:00:52;2.17;;;1.10;;
67274;SDS011;55463;52.324;5.122;2023-02-26T15:08:43;2.15;;;1.05;;
67274;SDS011;55463;52.324;5.122;2023-02-26T15:20:35;2.28;;;1.10;;
67274;SDS011;55463;52.324;5.122;2023-02-26T15:25:31;1.45;;;1.15;;
67274;SDS011;55463;52.324;5.122;2023-02-26T15:28:00;3.28;;;1.40;;
67274;SDS011;55463;52.324;5.122;2023-02-26T15:30:28;9.05;;;1.15;;
67274;SDS011;55463;52.324;5.122;2023-02-26T15:32:56;3.67;;;0.98;;
67274;SDS011;55463;52.324;5.122;2023-02-26T15:35:23;1.20;;;1.05;;
67274;SDS011;55463;52.324;5.122;2023-02-26T15:37:54;8.65;;;1.80;;
67274;SDS011;55463;52.324;5.122;2023-02-26T15:42:49;12.07;;;1.40;;
67274;SDS011;55463;52.324;5.122;2023-02-26T15:45:20;6.63;;;2.03;;
67274;SDS011;55463;52.324;5.122;2023-02-26T15:47:56;3.90;;;1.13;;
67274;SDS011;55463;52.324;5.122;2023-02-26T15:50:25;2.72;;;1.10;;
67274;SDS011;55463;52.324;5.122;2023-02-26T15:52:56;5.10;;;1.02;;
67274;SDS011;55463;52.324;5.122;2023-02-26T15:55:24;2.25;;;1.02;;
67274;SDS011;55463;52.324;5.122;2023-02-26T15:57:50;4.93;;;0.90;;
67274;SDS011;55463;52.324;5.122;2023-02-26T16:00:18;2.50;;;1.20;;
67274;SDS011;55463;52.324;5.122;2023-02-26T16:02:52;3.47;;;1.15;;
67274;SDS011;55463;52.324;5.122;2023-02-26T16:05:21;1.45;;;1.30;;
67274;SDS011;55463;52.324;5.122;2023-02-26T16:07:47;5.88;;;1.10;;
67274;SDS011;55463;52.324;5.122;2023-02-26T16:10:35;3.08;;;0.85;;
67274;SDS011;55463;52.324;5.122;2023-02-26T16:13:02;1.20;;;1.00;;
67274;SDS011;55463;52.324;5.122;2023-02-26T16:15:33;3.03;;;1.27;;
67274;SDS011;55463;52.324;5.122;2023-02-26T16:18:01;3.28;;;1.05;;
67274;SDS011;55463;52.324;5.122;2023-02-26T16:20:31;1.20;;;1.08;;
67274;SDS011;55463;52.324;5.122;2023-02-26T16:23:14;2.15;;;1.02;;
67274;SDS011;55463;52.324;5.122;2023-02-26T16:25:50;2.72;;;1.13;;
67274;SDS011;55463;52.324;5.122;2023-02-26T16:28:19;1.75;;;1.05;;
67274;SDS011;55463;52.324;5.122;2023-02-26T16:30:52;6.20;;;1.52;;
67274;SDS011;55463;52.324;5.122;2023-02-26T16:33:20;4.32;;;1.30;;
67274;SDS011;55463;52.324;5.122;2023-02-26T16:35:49;3.75;;;1.30;;
67274;SDS011;55463;52.324;5.122;2023-02-26T16:38:27;1.90;;;1.02;;
67274;SDS011;55463;52.324;5.122;2023-02-26T16:40:57;2.80;;;1.42;;
67274;SDS011;55463;52.324;5.122;2023-02-26T16:46:09;0.70;;;0.65;;
67274;SDS011;55463;52.324;5.122;2023-02-26T16:48:50;3.83;;;1.33;;
67274;SDS011;55463;52.324;5.122;2023-02-26T16:51:19;1.95;;;1.20;;
67274;SDS011;55463;52.324;5.122;2023-02-26T16:53:48;1.60;;;1.00;;
67274;SDS011;55463;52.324;5.122;2023-02-26T16:56:18;2.25;;;1.00;;
67274;SDS011;55463;52.324;5.122;2023-02-26T17:01:21;2.20;;;1.17;;
67274;SDS011;55463;52.324;5.122;2023-02-26T17:03:48;3.70;;;1.92;;
67274;SDS011;55463;52.324;5.122;2023-02-26T17:06:22;2.60;;;0.85;;
67274;SDS011;55463;52.324;5.122;2023-02-26T17:08:52;1.33;;;0.77;;
67274;SDS011;55463;52.324;5.122;2023-02-26T17:13:56;8.30;;;1.52;;
67274;SDS011;55463;52.324;5.122;2023-02-26T17:16:27;1.13;;;1.00;;
67274;SDS011;55463;52.324;5.122;2023-02-26T17:18:53;4.60;;;1.30;;
67274;SDS011;55463;52.324;5.122;2023-02-26T17:21:18;1.80;;;1.00;;
67274;SDS011;55463;52.324;5.122;2023-02-26T17:23:44;2.17;;;1.00;;
67274;SDS011;55463;52.324;5.122;2023-02-26T17:26:10;1.98;;;0.98;;
67274;SDS011;55463;52.324;5.122;2023-02-26T17:28:36;2.28;;;0.85;;
67274;SDS011;55463;52.324;5.122;2023-02-26T17:31:05;2.15;;;0.98;;
67274;SDS011;55463;52.324;5.122;2023-02-26T17:33:31;1.98;;;1.30;;
67274;SDS011;55463;52.324;5.122;2023-02-26T17:35:57;7.20;;;1.67;;
67274;SDS011;55463;52.324;5.122;2023-02-26T17:38:24;6.28;;;1.98;;
67274;SDS011;55463;52.324;5.122;2023-02-26T17:40:50;4.47;;;1.60;;
67274;SDS011;55463;52.324;5.122;2023-02-26T17:43:19;7.10;;;2.13;;
67274;SDS011;55463;52.324;5.122;2023-02-26T17:45:45;6.78;;;1.80;;
67274;SDS011;55463;52.324;5.122;2023-02-26T17:48:11;4.18;;;2.10;;
67274;SDS011;55463;52.324;5.122;2023-02-26T17:50:45;7.10;;;1.42;;
67274;SDS011;55463;52.324;5.122;2023-02-26T17:53:14;6.07;;;1.85;;
67274;SDS011;55463;52.324;5.122;2023-02-26T17:55:40;3.45;;;1.23;;
67274;SDS011;55463;52.324;5.122;2023-02-26T17:58:11;4.30;;;2.08;;
67274;SDS011;55463;52.324;5.122;2023-02-26T18:00:39;2.05;;;1.00;;
67274;SDS011;55463;52.324;5.122;2023-02-26T18:03:07;6.97;;;2.13;;
67274;SDS011;55463;52.324;5.122;2023-02-26T18:05:35;3.90;;;1.77;;
67274;SDS011;55463;52.324;5.122;2023-02-26T18:08:05;7.10;;;2.00;;
67274;SDS011;55463;52.324;5.122;2023-02-26T18:10:31;5.22;;;1.83;;
67274;SDS011;55463;52.324;5.122;2023-02-26T18:12:57;3.55;;;2.00;;
67274;SDS011;55463;52.324;5.122;2023-02-26T18:15:24;3.97;;;1.90;;
67274;SDS011;55463;52.324;5.122;2023-02-26T18:17:50;4.93;;;1.88;;
67274;SDS011;55463;52.324;5.122;2023-02-26T18:20:19;10.13;;;1.77;;
67274;SDS011;55463;52.324;5.122;2023-02-26T18:22:46;2.92;;;1.55;;
67274;SDS011;55463;52.324;5.122;2023-02-26T18:25:13;7.60;;;2.00;;
67274;SDS011;55463;52.324;5.122;2023-02-26T18:27:39;2.65;;;1.55;;
67274;SDS011;55463;52.324;5.122;2023-02-26T18:30:06;6.05;;;2.10;;
67274;SDS011;55463;52.324;5.122;2023-02-26T18:32:38;7.43;;;2.88;;
67274;SDS011;55463;52.324;5.122;2023-02-26T18:35:04;2.88;;;1.70;;
67274;SDS011;55463;52.324;5.122;2023-02-26T18:37:30;6.85;;;2.10;;
67274;SDS011;55463;52.324;5.122;2023-02-26T18:39:57;4.88;;;2.42;;
67274;SDS011;55463;52.324;5.122;2023-02-26T18:42:24;3.72;;;2.03;;
67274;SDS011;55463;52.324;5.122;2023-02-26T18:44:51;3.92;;;1.75;;
67274;SDS011;55463;52.324;5.122;2023-02-26T18:47:17;5.53;;;1.50;;
67274;SDS011;55463;52.324;5.122;2023-02-26T18:49:45;4.22;;;1.83;;
67274;SDS011;55463;52.324;5.122;2023-02-26T18:52:11;7.10;;;1.70;;
67274;SDS011;55463;52.324;5.122;2023-02-26T18:54:37;5.15;;;1.83;;
67274;SDS011;55463;52.324;5.122;2023-02-26T18:57:02;3.15;;;1.83;;
67274;SDS011;55463;52.324;5.122;2023-02-26T18:59:29;9.45;;;2.83;;
67274;SDS011;55463;52.324;5.122;2023-02-26T19:01:54;4.00;;;1.98;;
67274;SDS011;55463;52.324;5.122;2023-02-26T19:04:20;6.30;;;2.10;;
67274;SDS011;55463;52.324;5.122;2023-02-26T19:06:45;6.85;;;2.67;;
67274;SDS011;55463;52.324;5.122;2023-02-26T19:09:10;6.35;;;2.45;;
67274;SDS011;55463;52.324;5.122;2023-02-26T19:11:36;3.95;;;1.98;;
67274;SDS011;55463;52.324;5.122;2023-02-26T19:14:02;9.30;;;2.45;;
67274;SDS011;55463;52.324;5.122;2023-02-26T19:16:28;4.72;;;3.03;;
67274;SDS011;55463;52.324;5.122;2023-02-26T19:18:58;5.15;;;2.30;;
67274;SDS011;55463;52.324;5.122;2023-02-26T19:21:24;7.70;;;2.10;;
67274;SDS011;55463;52.324;5.122;2023-02-26T19:23:51;7.15;;;2.25;;
67274;SDS011;55463;52.324;5.122;2023-02-26T19:26:18;6.72;;;2.25;;
67274;SDS011;55463;52.324;5.122;2023-02-26T19:28:46;6.03;;;1.88;;
67274;SDS011;55463;52.324;5.122;2023-02-26T19:31:11;4.68;;;2.22;;
67274;SDS011;55463;52.324;5.122;2023-02-26T19:33:37;6.35;;;1.90;;
67274;SDS011;55463;52.324;5.122;2023-02-26T19:36:03;4.30;;;2.00;;
67274;SDS011;55463;52.324;5.122;2023-02-26T19:38:28;5.40;;;2.83;;
67274;SDS011;55463;52.324;5.122;2023-02-26T19:40:54;7.78;;;2.40;;
67274;SDS011;55463;52.324;5.122;2023-02-26T19:43:19;8.50;;;2.75;;
67274;SDS011;55463;52.324;5.122;2023-02-26T19:45:47;3.80;;;2.13;;
67274;SDS011;55463;52.324;5.122;2023-02-26T19:48:12;6.70;;;2.05;;
67274;SDS011;55463;52.324;5.122;2023-02-26T19:50:38;7.10;;;2.70;;
67274;SDS011;55463;52.324;5.122;2023-02-26T19:53:03;7.28;;;2.33;;
67274;SDS011;55463;52.324;5.122;2023-02-26T19:55:29;5.05;;;1.80;;
67274;SDS011;55463;52.324;5.122;2023-02-26T19:57:54;7.78;;;2.58;;
67274;SDS011;55463;52.324;5.122;2023-02-26T20:00:20;5.97;;;2.75;;
67274;SDS011;55463;52.324;5.122;2023-02-26T20:02:45;12.25;;;3.22;;
67274;SDS011;55463;52.324;5.122;2023-02-26T20:05:10;9.65;;;2.55;;
67274;SDS011;55463;52.324;5.122;2023-02-26T20:07:40;6.13;;;3.00;;
67274;SDS011;55463;52.324;5.122;2023-02-26T20:10:07;7.40;;;3.30;;
67274;SDS011;55463;52.324;5.122;2023-02-26T20:12:33;10.13;;;2.63;;
67274;SDS011;55463;52.324;5.122;2023-02-26T20:14:58;6.93;;;2.50;;
67274;SDS011;55463;52.324;5.122;2023-02-26T20:17:24;13.43;;;3.55;;
67274;SDS011;55463;52.324;5.122;2023-02-26T20:19:49;13.55;;;4.03;;
67274;SDS011;55463;52.324;5.122;2023-02-26T20:22:14;14.73;;;4.10;;
67274;SDS011;55463;52.324;5.122;2023-02-26T20:24:40;10.88;;;2.78;;
67274;SDS011;55463;52.324;5.122;2023-02-26T20:27:06;12.98;;;4.43;;
67274;SDS011;55463;52.324;5.122;2023-02-26T20:29:31;14.82;;;6.35;;
67274;SDS011;55463;52.324;5.122;2023-02-26T20:31:57;15.45;;;5.75;;
67274;SDS011;55463;52.324;5.122;2023-02-26T20:34:23;8.13;;;3.95;;
67274;SDS011;55463;52.324;5.122;2023-02-26T20:36:48;9.35;;;3.80;;
67274;SDS011;55463;52.324;5.122;2023-02-26T20:39:15;7.57;;;2.80;;
67274;SDS011;55463;52.324;5.122;2023-02-26T20:41:42;14.38;;;5.15;;
67274;SDS011;55463;52.324;5.122;2023-02-26T20:44:08;12.38;;;6.07;;
67274;SDS011;55463;52.324;5.122;2023-02-26T20:46:34;11.55;;;4.75;;
67274;SDS011;55463;52.324;5.122;2023-02-26T20:49:02;11.32;;;4.88;;
67274;SDS011;55463;52.324;5.122;2023-02-26T20:51:28;13.27;;;5.20;;
67274;SDS011;55463;52.324;5.122;2023-02-26T20:53:54;14.65;;;3.65;;
67274;SDS011;55463;52.324;5.122;2023-02-26T20:56:19;5.65;;;2.70;;
67274;SDS011;55463;52.324;5.122;2023-02-26T20:58:45;8.27;;;2.90;;
67274;SDS011;55463;52.324;5.122;2023-02-26T21:01:11;11.20;;;2.88;;
67274;SDS011;55463;52.324;5.122;2023-02-26T21:03:37;13.10;;;3.97;;
67274;SDS011;55463;52.324;5.122;2023-02-26T21:06:03;9.68;;;3.60;;
67274;SDS011;55463;52.324;5.122;2023-02-26T21:08:29;9.43;;;2.20;;
67274;SDS011;55463;52.324;5.122;2023-02-26T21:10:54;6.22;;;2.28;;
67274;SDS011;55463;52.324;5.122;2023-02-26T21:13:20;19.80;;;4.15;;
67274;SDS011;55463;52.324;5.122;2023-02-26T21:15:47;11.57;;;3.40;;
67274;SDS011;55463;52.324;5.122;2023-02-26T21:18:13;7.55;;;2.70;;